Time;durP1;ratioP1;P1;durP2;ratioP2;P2;SDS_P1;SDS_P2;PMS_P1;PMS_P2;Temp;Humidity;BMP_temperature;BMP_pressure;BME280_temperature;BME280_humidity;BME280_pressure;Samples;Min_cycle;Max_cycle;Signal;HPM_P1;HPM_P2
2022/03/13 00:01:41;;;;;;;13.63;10.40;;;21.80;63.50;;;;;;6199492;28;89227;-66
2022/03/13 00:04:44;;;;;;;13.25;10.73;;;21.80;63.30;;;;;;6203634;28;88986;-66
2022/03/13 00:07:47;;;;;;;14.50;10.55;;;21.80;63.30;;;;;;6202140;28;88831;-67
2022/03/13 00:10:56;;;;;;;13.48;10.82;;;21.80;63.20;;;;;;6204026;28;88356;-67
2022/03/13 00:13:58;;;;;;;13.45;10.95;;;21.80;63.20;;;;;;6202348;28;89383;-67
2022/03/13 00:17:00;;;;;;;13.15;10.80;;;21.80;63.30;;;;;;6196871;28;89104;-66
2022/03/13 00:20:05;;;;;;;14.50;10.23;;;21.80;63.20;;;;;;6194264;28;89922;-67
2022/03/13 00:23:07;;;;;;;13.25;10.98;;;21.80;63.20;;;;;;6201635;28;89299;-67
2022/03/13 00:26:11;;;;;;;12.55;11.25;;;21.70;63.30;;;;;;6198770;28;89213;-67
2022/03/13 00:29:13;;;;;;;12.23;10.50;;;21.80;66.20;;;;;;6195484;28;88868;-67
2022/03/13 00:32:15;;;;;;;13.52;10.77;;;21.80;64.20;;;;;;6201537;28;89164;-68
2022/03/13 00:35:17;;;;;;;11.20;9.77;;;21.80;63.70;;;;;;6188314;28;89048;-67
2022/03/13 00:38:21;;;;;;;13.55;10.52;;;21.90;63.40;;;;;;6203359;28;88288;-66
2022/03/13 00:41:25;;;;;;;10.73;9.50;;;21.90;63.30;;;;;;6199987;28;88288;-66
2022/03/13 00:44:27;;;;;;;12.80;9.27;;;21.90;63.10;;;;;;6201420;28;89324;-66
2022/03/13 00:47:29;;;;;;;11.48;10.10;;;21.90;63.90;;;;;;6201362;28;89147;-66
2022/03/13 00:50:31;;;;;;;11.60;9.63;;;21.90;62.80;;;;;;6201088;28;89953;-67
2022/03/13 00:53:33;;;;;;;10.73;9.30;;;21.90;62.80;;;;;;6201977;28;89094;-66
2022/03/13 00:56:38;;;;;;;12.15;9.30;;;21.90;62.90;;;;;;6199097;28;89270;-67
2022/03/13 00:59:40;;;;;;;11.52;9.20;;;21.90;64.10;;;;;;6201735;28;89116;-68
2022/03/13 01:02:42;;;;;;;11.20;9.45;;;21.80;63.70;;;;;;6201712;28;89573;-67
2022/03/13 01:05:44;;;;;;;9.95;8.85;;;21.90;63.50;;;;;;6196621;28;89256;-66
2022/03/13 01:08:47;;;;;;;11.00;9.15;;;21.80;63.30;;;;;;6200779;28;89115;-66
2022/03/13 01:11:51;;;;;;;10.90;8.82;;;21.80;63.40;;;;;;6200182;28;88306;-66
2022/03/13 01:14:53;;;;;;;11.25;9.13;;;21.80;63.30;;;;;;6199054;28;87769;-67
2022/03/13 01:17:55;;;;;;;9.30;8.07;;;21.80;63.30;;;;;;6181865;28;87954;-67
2022/03/13 01:20:57;;;;;;;10.30;8.93;;;21.80;63.80;;;;;;6194657;28;89959;-66
2022/03/13 01:24:19;;;;;;;10.23;8.65;;;21.80;63.70;;;;;;6191428;28;89100;-66
2022/03/13 01:27:23;;;;;;;9.35;8.05;;;21.80;63.70;;;;;;6201469;28;89140;-66
2022/03/13 01:30:25;;;;;;;9.65;8.10;;;21.70;63.60;;;;;;6205394;28;89395;-65
2022/03/13 01:33:27;;;;;;;9.20;8.30;;;21.70;63.50;;;;;;6201847;28;89115;-65
2022/03/13 01:36:30;;;;;;;9.18;8.10;;;21.70;63.50;;;;;;6206253;28;88013;-65
2022/03/13 01:39:32;;;;;;;9.38;8.13;;;21.70;63.60;;;;;;6203583;28;90282;-65
2022/03/13 01:42:36;;;;;;;8.48;7.60;;;21.70;63.50;;;;;;6198239;28;88609;-65
2022/03/13 01:45:38;;;;;;;8.70;7.75;;;21.70;63.60;;;;;;6195669;28;89132;-65
2022/03/13 01:48:53;;;;;;;8.50;7.60;;;21.60;63.50;;;;;;6200645;28;89160;-64
2022/03/13 01:51:57;;;;;;;8.80;7.90;;;21.60;63.70;;;;;;6201467;28;88900;-67
2022/03/13 06:50:08;;;;;;;4.13;3.72;;;22.40;59.20;;;;;;6141997;28;88833;-96
2022/03/13 06:53:11;;;;;;;5.40;4.07;;;22.50;59.10;;;;;;6158793;28;88682;-96
2022/03/13 06:59:29;;;;;;;4.75;4.25;;;22.50;59.00;;;;;;6148381;28;90700;-96
2022/03/13 07:17:43;;;;;;;4.53;4.13;;;22.50;59.00;;;;;;6174205;28;89771;-96
2022/03/13 07:24:32;;;;;;;4.63;3.97;;;22.60;59.00;;;;;;6173647;28;88688;-96
2022/03/13 07:40:46;;;;;;;4.60;4.20;;;22.60;59.10;;;;;;6170042;28;89599;-96
2022/03/13 07:47:05;;;;;;;5.13;4.63;;;22.60;59.10;;;;;;6169468;28;89564;-96
2022/03/13 07:50:08;;;;;;;5.63;5.13;;;22.70;58.70;;;;;;6160620;28;87946;-96
2022/03/13 07:56:30;;;;;;;4.75;4.35;;;22.60;54.70;;;;;;6160520;28;87006;-96
2022/03/13 08:02:53;;;;;;;5.10;4.30;;;22.60;55.10;;;;;;6159658;28;89236;-96
2022/03/13 08:09:11;;;;;;;4.43;4.03;;;22.60;55.30;;;;;;6167574;28;89031;-96
2022/03/13 08:12:15;;;;;;;4.53;4.10;;;22.50;55.40;;;;;;6164299;28;88520;-96
2022/03/13 08:15:17;;;;;;;4.53;4.13;;;22.60;55.50;;;;;;6159690;28;88395;-96
2022/03/13 08:21:36;;;;;;;4.45;4.05;;;22.50;55.60;;;;;;6161825;28;89260;-96
2022/03/13 08:24:38;;;;;;;4.50;4.10;;;22.50;55.70;;;;;;6159432;28;87942;-96
2022/03/13 08:31:27;;;;;;;4.30;3.90;;;22.50;55.90;;;;;;6165830;28;89996;-96
2022/03/13 08:37:46;;;;;;;4.38;3.97;;;22.50;56.10;;;;;;6174592;28;90258;-96
2022/03/13 08:40:48;;;;;;;5.45;4.35;;;22.50;56.20;;;;;;6171290;28;87616;-96
2022/03/13 08:43:50;;;;;;;4.25;3.85;;;22.50;56.30;;;;;;6170002;28;87086;-96
2022/03/13 08:51:23;;;;;;;4.15;3.85;;;22.50;56.40;;;;;;6174399;28;89465;-96
2022/03/13 09:05:44;;;;;;;4.10;3.67;;;22.50;56.70;;;;;;6169215;28;89225;-96
2022/03/13 09:15:22;;;;;;;4.85;3.90;;;22.50;57.00;;;;;;6188729;22;90260;-66
2022/03/13 09:18:24;;;;;;;4.55;4.15;;;22.50;57.10;;;;;;6183510;28;89073;-65
2022/03/13 09:21:30;;;;;;;4.38;3.97;;;22.50;57.50;;;;;;6185591;28;89085;-66
2022/03/13 09:24:32;;;;;;;5.18;4.22;;;22.50;57.50;;;;;;6184300;28;87999;-67
2022/03/13 09:27:34;;;;;;;4.53;4.07;;;22.50;57.80;;;;;;6184241;28;89380;-65
2022/03/13 09:30:36;;;;;;;4.50;4.10;;;22.60;58.10;;;;;;6184026;28;89482;-67
2022/03/13 09:33:38;;;;;;;5.10;4.60;;;22.60;58.30;;;;;;6184578;28;88353;-66
2022/03/13 09:36:43;;;;;;;4.55;4.10;;;22.60;58.30;;;;;;6183600;28;89028;-65
2022/03/13 09:39:45;;;;;;;8.68;5.53;;;22.60;58.50;;;;;;6185727;28;89482;-67
2022/03/13 09:42:47;;;;;;;132.98;55.45;;;22.70;59.00;;;;;;6174327;28;90228;-65
2022/03/13 09:45:49;;;;;;;184.48;67.45;;;22.70;63.50;;;;;;6183812;28;89038;-66
2022/03/13 09:48:54;;;;;;;50.53;22.27;;;22.70;65.50;;;;;;6183100;28;89260;-65
2022/03/13 09:51:58;;;;;;;42.20;19.08;;;22.70;62.00;;;;;;6164888;28;87970;-65
2022/03/13 09:55:00;;;;;;;37.08;17.10;;;22.80;61.10;;;;;;6177945;28;89046;-65
2022/03/13 09:58:02;;;;;;;33.70;15.38;;;22.90;60.90;;;;;;6182424;28;89128;-66
2022/03/13 10:01:07;;;;;;;30.35;14.07;;;22.90;60.80;;;;;;6173659;28;89034;-64
2022/03/13 10:04:10;;;;;;;28.50;14.00;;;22.80;61.00;;;;;;6183393;28;86920;-65
2022/03/13 10:07:15;;;;;;;27.92;12.80;;;22.80;61.30;;;;;;6181052;28;89166;-65
2022/03/13 10:10:17;;;;;;;23.88;12.45;;;22.80;61.30;;;;;;6180575;28;90557;-64
2022/03/13 10:13:36;;;;;;;24.17;11.30;;;22.90;61.10;;;;;;6179028;28;88928;-65
2022/03/13 10:16:39;;;;;;;22.42;11.52;;;22.90;60.80;;;;;;6177331;28;89111;-64
2022/03/13 10:19:41;;;;;;;22.13;11.27;;;22.90;60.50;;;;;;6180512;28;89294;-64
2022/03/13 10:22:46;;;;;;;19.55;11.07;;;22.90;60.30;;;;;;6178365;28;89120;-65
2022/03/13 10:25:50;;;;;;;18.88;10.95;;;22.90;60.20;;;;;;6180733;28;89057;-64
2022/03/13 10:28:52;;;;;;;19.85;10.80;;;23.00;60.10;;;;;;6181268;28;89079;-64
2022/03/13 10:31:58;;;;;;;17.77;10.70;;;22.90;60.00;;;;;;6182279;28;89315;-64
2022/03/13 10:35:01;;;;;;;18.50;10.45;;;23.00;60.00;;;;;;6178343;28;88350;-64
2022/03/13 10:38:14;;;;;;;17.20;10.35;;;23.00;60.00;;;;;;6178256;28;89070;-64
2022/03/13 10:41:17;;;;;;;16.13;10.38;;;23.00;59.90;;;;;;6175994;28;88146;-65
2022/03/13 10:44:22;;;;;;;17.08;10.13;;;23.00;59.80;;;;;;6181623;28;90105;-66
2022/03/13 10:47:25;;;;;;;17.42;10.18;;;23.00;59.90;;;;;;6179995;28;89155;-66
2022/03/13 10:50:30;;;;;;;17.83;10.20;;;23.00;59.90;;;;;;6180746;28;89235;-65
2022/03/13 10:53:33;;;;;;;15.52;9.95;;;23.00;59.90;;;;;;6180506;28;89048;-65
2022/03/13 10:56:35;;;;;;;15.10;9.95;;;23.00;59.80;;;;;;6179347;28;87935;-65
2022/03/13 10:59:39;;;;;;;14.90;9.40;;;23.10;59.80;;;;;;6180958;28;89103;-65
2022/03/13 11:02:41;;;;;;;16.25;9.93;;;23.00;59.70;;;;;;6181790;28;88540;-65
2022/03/13 11:05:43;;;;;;;16.42;9.77;;;23.10;59.80;;;;;;6169887;28;88627;-65
2022/03/13 11:08:53;;;;;;;10.43;8.60;;;23.00;59.70;;;;;;6177223;28;87975;-64
2022/03/13 11:11:56;;;;;;;11.65;8.90;;;23.00;50.50;;;;;;6181842;28;88949;-65
2022/03/13 11:15:00;;;;;;;9.77;8.23;;;22.90;47.50;;;;;;6167244;28;90496;-65
2022/03/13 11:18:03;;;;;;;10.75;8.43;;;22.70;46.50;;;;;;6179898;28;89172;-64
2022/03/13 11:21:07;;;;;;;9.43;8.52;;;22.60;47.30;;;;;;6175893;28;89023;-64
2022/03/13 11:24:11;;;;;;;8.63;7.70;;;22.50;47.70;;;;;;6179959;28;88530;-64
2022/03/13 11:27:15;;;;;;;9.20;8.13;;;22.50;47.20;;;;;;6180615;28;89135;-64
2022/03/13 11:30:30;;;;;;;10.20;7.47;;;22.50;48.00;;;;;;6182704;28;89191;-65
2022/03/13 11:33:34;;;;;;;8.35;7.53;;;22.50;49.30;;;;;;6181568;28;89095;-64
2022/03/13 11:36:36;;;;;;;9.45;7.90;;;22.50;50.30;;;;;;6176872;28;88103;-64
2022/03/13 11:39:40;;;;;;;8.20;7.32;;;22.50;50.90;;;;;;6176183;28;89417;-64
2022/03/13 11:42:47;;;;;;;9.02;7.60;;;22.50;51.40;;;;;;6181631;28;89380;-64
2022/03/13 11:45:54;;;;;;;8.30;7.40;;;22.50;51.90;;;;;;6168301;28;88919;-64
2022/03/13 11:48:56;;;;;;;7.43;6.65;;;22.50;52.40;;;;;;6168641;28;89066;-64
2022/03/13 11:52:26;;;;;;;8.30;7.00;;;22.50;52.70;;;;;;6183367;28;89064;-64
2022/03/13 11:55:29;;;;;;;8.18;6.88;;;22.50;53.10;;;;;;6180080;28;89514;-64
2022/03/13 11:58:45;;;;;;;7.68;6.78;;;22.50;53.30;;;;;;6182240;28;89420;-64
2022/03/13 12:01:49;;;;;;;7.53;6.72;;;22.50;53.60;;;;;;6174607;28;88281;-64
2022/03/13 12:04:51;;;;;;;9.07;6.60;;;22.50;53.80;;;;;;6174933;28;89032;-64
2022/03/13 12:07:53;;;;;;;9.68;6.75;;;22.50;54.00;;;;;;6171228;28;88292;-64
2022/03/13 12:10:57;;;;;;;7.93;6.50;;;22.50;54.20;;;;;;6181652;28;91397;-64
2022/03/13 12:13:59;;;;;;;8.93;6.78;;;22.50;54.30;;;;;;6181554;28;89068;-64
2022/03/13 12:17:08;;;;;;;7.75;6.25;;;22.50;54.50;;;;;;6180872;28;90027;-64
2022/03/13 12:20:21;;;;;;;7.22;6.53;;;22.60;54.80;;;;;;6180691;28;88758;-65
2022/03/13 12:23:28;;;;;;;6.90;6.20;;;22.50;54.80;;;;;;6182429;28;89156;-65
2022/03/13 12:26:34;;;;;;;7.65;6.85;;;22.60;55.00;;;;;;6182554;28;89023;-64
2022/03/13 12:29:36;;;;;;;7.30;6.60;;;22.60;55.10;;;;;;6169899;28;88746;-64
2022/03/13 12:32:37;;;;;;;6.90;6.20;;;22.60;55.20;;;;;;6172663;28;88277;-64
2022/03/13 12:35:40;;;;;;;6.72;6.13;;;22.60;55.40;;;;;;6180136;28;89239;-64
2022/03/13 12:38:43;;;;;;;6.78;6.07;;;22.60;55.50;;;;;;6181662;28;88465;-65
2022/03/13 12:41:56;;;;;;;6.85;6.25;;;22.60;55.70;;;;;;6182097;28;89243;-64
2022/03/13 12:45:12;;;;;;;7.43;6.45;;;22.60;55.80;;;;;;6179832;28;89593;-64
2022/03/13 12:48:15;;;;;;;7.10;6.40;;;22.60;55.80;;;;;;6179011;28;89950;-64
2022/03/13 12:51:35;;;;;;;6.95;6.28;;;22.60;55.90;;;;;;6182423;28;87951;-65
2022/03/13 12:54:40;;;;;;;6.97;6.28;;;22.60;56.00;;;;;;6176265;28;89446;-64
2022/03/13 12:57:52;;;;;;;6.70;6.00;;;22.60;56.10;;;;;;6180868;28;88979;-64
2022/03/13 13:00:54;;;;;;;6.72;6.00;;;22.60;56.10;;;;;;6180647;28;89024;-65
2022/03/13 13:03:56;;;;;;;6.75;6.10;;;22.60;56.20;;;;;;6182682;28;89076;-64
2022/03/13 13:06:58;;;;;;;6.90;6.30;;;22.60;56.30;;;;;;6168159;28;89109;-65
2022/03/13 13:10:01;;;;;;;6.60;6.00;;;22.60;56.40;;;;;;6179402;28;87486;-64
2022/03/13 13:13:08;;;;;;;6.70;6.00;;;22.60;56.50;;;;;;6169519;28;89479;-64
2022/03/13 13:16:10;;;;;;;6.43;5.82;;;22.60;56.60;;;;;;6181180;28;88711;-64
2022/03/13 13:19:12;;;;;;;6.70;6.10;;;22.60;56.60;;;;;;6182040;28;90042;-65
2022/03/13 13:22:15;;;;;;;6.25;5.65;;;22.60;56.60;;;;;;6186601;28;89088;-65
2022/03/13 13:25:19;;;;;;;6.20;5.60;;;22.60;56.70;;;;;;6184888;28;89047;-64
2022/03/13 13:28:24;;;;;;;6.63;6.03;;;22.60;56.70;;;;;;6171215;28;88908;-64
2022/03/13 13:31:27;;;;;;;6.65;6.05;;;22.60;56.70;;;;;;6174232;28;89339;-64
2022/03/13 13:34:30;;;;;;;6.35;5.75;;;22.60;56.80;;;;;;6185716;28;89261;-64
2022/03/13 13:37:33;;;;;;;6.18;5.57;;;22.60;56.90;;;;;;6183835;28;89179;-64
2022/03/13 13:40:37;;;;;;;6.35;5.75;;;22.60;56.90;;;;;;6185693;28;88765;-64
2022/03/13 13:43:44;;;;;;;6.57;5.97;;;22.60;56.90;;;;;;6183795;28;88950;-64
2022/03/13 13:46:46;;;;;;;6.43;5.80;;;22.60;57.00;;;;;;6183767;28;89066;-64
2022/03/13 13:49:48;;;;;;;5.97;5.40;;;22.60;57.00;;;;;;6176564;28;90294;-64
2022/03/13 13:52:59;;;;;;;6.07;5.47;;;22.60;57.00;;;;;;6177265;28;89199;-64
2022/03/13 13:56:11;;;;;;;6.18;5.60;;;22.60;57.00;;;;;;6178515;28;88988;-64
2022/03/13 13:59:20;;;;;;;6.35;5.75;;;22.60;57.00;;;;;;6175160;28;88336;-64
2022/03/13 14:02:25;;;;;;;5.90;5.30;;;22.60;57.10;;;;;;6171567;28;88995;-64
2022/03/13 14:05:27;;;;;;;6.18;5.57;;;22.60;57.10;;;;;;6173300;28;89449;-64
2022/03/13 14:08:29;;;;;;;5.90;5.30;;;22.60;57.10;;;;;;6177808;28;89039;-64
2022/03/13 14:11:32;;;;;;;6.00;5.40;;;22.60;57.20;;;;;;6184066;28;88298;-64
2022/03/13 14:14:36;;;;;;;6.53;5.63;;;22.60;57.20;;;;;;6182820;28;89217;-64
2022/03/13 14:17:38;;;;;;;6.30;5.70;;;22.60;57.20;;;;;;6184779;28;89012;-64
2022/03/13 14:20:40;;;;;;;6.20;5.60;;;22.60;57.20;;;;;;6183444;28;89991;-64
2022/03/13 14:23:42;;;;;;;5.70;5.20;;;22.60;57.20;;;;;;6182520;28;89036;-64
2022/03/13 14:26:44;;;;;;;5.82;5.28;;;22.60;57.30;;;;;;6182506;28;89393;-64
2022/03/13 14:29:47;;;;;;;5.82;5.25;;;22.60;57.30;;;;;;6183615;28;88996;-64
2022/03/13 14:32:49;;;;;;;6.20;5.70;;;22.60;57.30;;;;;;6172146;28;89022;-65
2022/03/13 14:35:51;;;;;;;5.97;5.47;;;22.60;57.20;;;;;;6183641;28;89172;-64
2022/03/13 14:38:53;;;;;;;5.70;5.10;;;22.60;57.30;;;;;;6184808;28;89183;-64
2022/03/13 14:41:55;;;;;;;5.90;5.30;;;22.60;57.30;;;;;;6176016;28;88295;-64
2022/03/13 14:44:59;;;;;;;5.82;5.30;;;22.60;57.30;;;;;;6160673;28;89251;-64
2022/03/13 14:48:01;;;;;;;5.28;4.78;;;22.60;57.40;;;;;;6176762;28;89175;-64
2022/03/13 14:51:03;;;;;;;6.25;5.72;;;22.60;57.30;;;;;;6173192;28;89972;-64
2022/03/13 14:54:08;;;;;;;7.18;6.57;;;22.60;52.60;;;;;;6179947;28;89025;-64
2022/03/13 14:57:10;;;;;;;7.95;7.25;;;22.40;51.10;;;;;;6178796;28;89903;-65
2022/03/13 15:00:16;;;;;;;8.02;7.22;;;22.30;45.80;;;;;;6166980;28;89288;-65
2022/03/13 15:03:18;;;;;;;7.38;6.68;;;22.20;46.10;;;;;;6177267;28;89063;-64
2022/03/13 15:06:20;;;;;;;8.32;6.60;;;22.20;48.10;;;;;;6177868;28;89336;-65
2022/03/13 15:09:22;;;;;;;6.88;6.28;;;22.10;49.40;;;;;;6178953;28;89245;-65
2022/03/13 15:12:27;;;;;;;7.60;5.85;;;22.20;50.20;;;;;;6166540;28;88337;-65
2022/03/13 15:15:31;;;;;;;6.47;5.88;;;22.20;50.80;;;;;;6164605;28;88349;-65
2022/03/13 15:18:34;;;;;;;6.40;5.80;;;22.20;51.10;;;;;;6170216;28;89105;-65
2022/03/13 15:21:54;;;;;;;6.22;5.70;;;22.20;51.50;;;;;;6177968;28;90439;-65
2022/03/13 15:24:56;;;;;;;6.03;5.43;;;22.30;51.90;;;;;;6171454;28;89131;-65
2022/03/13 15:27:58;;;;;;;6.30;5.70;;;22.30;52.10;;;;;;6176034;28;89046;-65
2022/03/13 15:31:02;;;;;;;6.00;5.40;;;22.30;52.50;;;;;;6174621;28;89373;-65
2022/03/13 15:34:04;;;;;;;5.78;5.22;;;22.30;52.70;;;;;;6178455;28;89146;-65
2022/03/13 15:37:06;;;;;;;6.07;5.40;;;22.30;53.30;;;;;;6177711;28;89500;-65
2022/03/13 15:40:09;;;;;;;6.35;5.40;;;22.30;53.30;;;;;;6179505;28;89127;-65
2022/03/13 15:43:12;;;;;;;5.78;5.25;;;22.40;53.60;;;;;;6176366;28;87464;-65
2022/03/13 15:46:15;;;;;;;5.70;5.10;;;22.40;53.80;;;;;;6180139;28;89300;-65
2022/03/13 15:49:17;;;;;;;5.60;5.10;;;22.30;54.00;;;;;;6175348;28;89103;-65
2022/03/13 15:52:37;;;;;;;6.10;5.20;;;22.40;54.20;;;;;;6167824;28;88901;-65
2022/03/13 15:55:40;;;;;;;5.25;4.75;;;22.40;54.40;;;;;;6180969;28;91064;-65
2022/03/13 15:58:42;;;;;;;5.63;4.95;;;22.30;54.50;;;;;;6182919;28;87949;-65
2022/03/13 16:01:45;;;;;;;5.40;4.90;;;22.40;54.70;;;;;;6175780;28;88957;-65
2022/03/13 16:04:47;;;;;;;5.95;4.63;;;22.30;54.80;;;;;;6169161;28;89260;-65
2022/03/13 16:07:49;;;;;;;6.20;4.90;;;22.40;54.90;;;;;;6175648;28;89076;-65
2022/03/13 16:10:51;;;;;;;5.25;4.65;;;22.40;55.00;;;;;;6181024;28;89074;-65
2022/03/13 16:13:53;;;;;;;5.55;4.90;;;22.40;55.00;;;;;;6181886;28;88179;-65
2022/03/13 16:16:57;;;;;;;5.10;4.50;;;22.30;55.00;;;;;;6180779;28;89037;-65
2022/03/13 16:19:59;;;;;;;6.07;4.68;;;22.30;55.10;;;;;;6183160;28;88156;-65
2022/03/13 16:23:01;;;;;;;5.43;4.75;;;22.40;55.30;;;;;;6179893;28;89929;-65
2022/03/13 16:26:03;;;;;;;5.10;4.60;;;22.40;55.30;;;;;;6182587;28;89055;-65
2022/03/13 16:29:05;;;;;;;6.70;4.82;;;22.40;55.40;;;;;;6182071;28;88724;-65
2022/03/13 16:32:09;;;;;;;6.15;4.90;;;22.40;55.40;;;;;;6180184;28;89098;-65
2022/03/13 16:35:11;;;;;;;5.55;4.15;;;22.40;55.50;;;;;;6168921;28;89112;-64
2022/03/13 16:38:13;;;;;;;5.90;4.53;;;22.30;55.50;;;;;;6181119;28;89066;-64
2022/03/13 16:41:15;;;;;;;6.07;4.45;;;22.40;55.60;;;;;;6178918;28;89353;-64
2022/03/13 16:44:18;;;;;;;5.05;4.40;;;22.30;55.40;;;;;;6180301;28;88335;-64
2022/03/13 16:47:21;;;;;;;4.80;4.30;;;22.40;55.40;;;;;;6180263;28;89424;-64
2022/03/13 16:50:23;;;;;;;5.15;4.30;;;22.40;55.50;;;;;;6169034;28;89036;-64
2022/03/13 16:53:25;;;;;;;4.95;4.53;;;22.30;55.40;;;;;;6180282;28;88671;-64
2022/03/13 16:56:28;;;;;;;4.90;4.45;;;22.30;55.60;;;;;;6176402;28;89512;-64
2022/03/13 16:59:30;;;;;;;4.75;4.30;;;22.30;55.70;;;;;;6183709;28;89137;-64
2022/03/13 17:02:33;;;;;;;5.03;4.53;;;22.30;55.80;;;;;;6182672;28;88967;-64
2022/03/13 17:05:36;;;;;;;8.32;4.60;;;22.20;56.00;;;;;;6180458;28;89156;-64
2022/03/13 17:08:38;;;;;;;5.15;4.65;;;22.20;56.20;;;;;;6184917;28;89469;-64
2022/03/13 17:11:40;;;;;;;5.15;4.63;;;22.20;56.40;;;;;;6185183;28;89026;-64
2022/03/13 17:14:44;;;;;;;5.13;4.63;;;22.20;56.60;;;;;;6183921;28;86433;-64
2022/03/13 17:17:47;;;;;;;6.15;4.55;;;22.20;56.80;;;;;;6183581;28;89294;-64
2022/03/13 17:20:50;;;;;;;5.30;4.70;;;22.20;56.90;;;;;;6182988;28;91341;-64
2022/03/13 17:23:53;;;;;;;5.68;4.55;;;22.20;57.10;;;;;;6183401;28;90034;-64
2022/03/13 17:26:55;;;;;;;6.43;4.63;;;22.20;57.30;;;;;;6183132;28;89155;-64
2022/03/13 17:29:57;;;;;;;6.45;4.47;;;22.20;57.50;;;;;;6184713;28;89386;-64
2022/03/13 17:33:02;;;;;;;6.35;4.15;;;22.20;57.70;;;;;;6184514;28;89054;-64
2022/03/13 17:36:04;;;;;;;4.95;4.45;;;22.20;57.90;;;;;;6181352;28;89280;-64
2022/03/13 17:39:07;;;;;;;4.95;4.43;;;22.10;58.00;;;;;;6180906;28;89074;-64
2022/03/13 17:42:11;;;;;;;5.25;4.38;;;22.10;58.10;;;;;;6179905;28;89029;-64
2022/03/13 17:45:14;;;;;;;4.50;4.07;;;22.20;58.30;;;;;;6184018;28;88252;-64
2022/03/13 17:48:17;;;;;;;5.60;4.30;;;22.10;58.30;;;;;;6182200;28;87939;-64
2022/03/13 17:51:19;;;;;;;5.40;4.28;;;22.10;58.30;;;;;;6181012;28;89019;-64
2022/03/13 17:54:22;;;;;;;6.18;4.38;;;22.10;58.40;;;;;;6182738;28;90013;-64
2022/03/13 17:57:24;;;;;;;5.03;4.60;;;22.10;58.50;;;;;;6181345;28;88857;-64
2022/03/13 18:00:26;;;;;;;5.95;4.43;;;22.10;58.60;;;;;;6183378;28;89078;-64
2022/03/13 18:03:29;;;;;;;5.88;4.15;;;22.10;58.70;;;;;;6183778;28;89054;-64
2022/03/13 18:06:34;;;;;;;4.63;4.22;;;22.10;58.80;;;;;;6175379;28;89463;-64
2022/03/13 18:09:36;;;;;;;4.30;3.80;;;22.10;58.80;;;;;;6180833;28;87939;-64
2022/03/13 18:12:38;;;;;;;5.53;4.30;;;22.10;59.30;;;;;;6175651;28;88936;-64
2022/03/13 18:15:40;;;;;;;6.65;4.57;;;22.10;60.10;;;;;;6181113;28;87970;-64
2022/03/13 18:18:44;;;;;;;6.43;4.47;;;22.10;60.40;;;;;;6181478;28;89384;-65
2022/03/13 18:21:46;;;;;;;5.15;3.90;;;22.10;60.40;;;;;;6182719;28;89393;-64
2022/03/13 18:24:47;;;;;;;6.07;4.30;;;22.10;60.50;;;;;;6179995;28;90214;-65
2022/03/13 18:27:50;;;;;;;6.00;4.30;;;22.10;60.70;;;;;;6181077;28;88113;-65
2022/03/13 18:30:52;;;;;;;5.22;4.70;;;22.10;61.00;;;;;;6177967;28;87969;-65
2022/03/13 18:33:55;;;;;;;6.00;4.20;;;22.20;61.00;;;;;;6167407;28;89024;-65
2022/03/13 18:36:57;;;;;;;7.47;4.40;;;22.20;61.70;;;;;;6178267;28;89176;-66
2022/03/13 18:40:00;;;;;;;7.88;4.20;;;22.20;60.70;;;;;;6177156;28;89091;-66
2022/03/13 18:43:02;;;;;;;4.93;4.30;;;22.20;60.70;;;;;;6177800;28;88945;-66
2022/03/13 18:46:05;;;;;;;5.18;4.25;;;22.20;60.60;;;;;;6179916;28;88364;-66
2022/03/13 18:49:08;;;;;;;4.72;4.25;;;22.20;60.50;;;;;;6177984;28;88669;-66
2022/03/13 18:52:10;;;;;;;5.40;4.05;;;22.20;60.40;;;;;;6179824;28;89236;-66
2022/03/13 18:55:12;;;;;;;4.70;4.22;;;22.20;60.30;;;;;;6176404;28;90036;-66
2022/03/13 18:58:15;;;;;;;5.35;4.18;;;22.20;60.20;;;;;;6179242;28;89178;-66
2022/03/13 19:01:17;;;;;;;5.05;4.22;;;22.20;60.10;;;;;;6178774;28;88000;-66
2022/03/13 19:04:20;;;;;;;5.22;3.97;;;22.20;60.10;;;;;;6179313;28;89379;-66
2022/03/13 19:07:22;;;;;;;5.13;4.40;;;22.20;60.10;;;;;;6167955;28;89001;-65
2022/03/13 19:10:24;;;;;;;5.15;4.20;;;22.20;60.10;;;;;;6178279;28;89038;-64
2022/03/13 19:13:26;;;;;;;4.63;4.10;;;22.20;60.10;;;;;;6181450;28;89136;-64
2022/03/13 19:16:29;;;;;;;4.72;3.80;;;22.10;60.10;;;;;;6179742;28;88634;-66
2022/03/13 19:19:33;;;;;;;5.32;3.70;;;22.10;60.10;;;;;;6178726;28;89046;-65
2022/03/13 19:22:35;;;;;;;4.55;4.15;;;22.10;60.10;;;;;;6180500;28;89067;-66
2022/03/13 19:25:38;;;;;;;5.38;4.00;;;22.20;60.10;;;;;;6178712;28;90058;-67
2022/03/13 19:28:40;;;;;;;4.60;4.10;;;22.10;60.10;;;;;;6180998;28;87895;-66
2022/03/13 19:31:42;;;;;;;5.35;4.07;;;22.20;60.10;;;;;;6180220;28;89060;-66
2022/03/13 19:34:46;;;;;;;4.72;4.25;;;22.20;60.10;;;;;;6180127;28;89143;-65
2022/03/13 19:37:48;;;;;;;6.75;4.45;;;22.20;60.10;;;;;;6180852;28;88797;-65
2022/03/13 19:40:50;;;;;;;7.57;4.38;;;22.20;60.20;;;;;;6177074;28;89105;-66
2022/03/13 19:44:00;;;;;;;5.22;4.07;;;22.20;60.20;;;;;;6177542;28;87877;-66
2022/03/13 19:47:02;;;;;;;8.30;5.10;;;22.20;60.20;;;;;;6178985;28;88640;-66
2022/03/13 19:50:07;;;;;;;6.20;4.70;;;22.20;60.20;;;;;;6180089;28;89214;-66
2022/03/13 19:53:09;;;;;;;5.80;4.57;;;22.30;60.20;;;;;;6178499;28;89019;-65
2022/03/13 19:56:30;;;;;;;7.25;4.90;;;22.30;60.20;;;;;;6166804;28;90762;-65
2022/03/13 19:59:32;;;;;;;6.72;4.60;;;22.30;60.10;;;;;;6178598;28;89317;-65
2022/03/13 20:02:35;;;;;;;7.70;4.70;;;22.30;60.10;;;;;;6177905;28;89074;-65
2022/03/13 20:05:39;;;;;;;6.07;4.80;;;22.40;60.10;;;;;;6176959;28;89606;-65
2022/03/13 20:08:41;;;;;;;8.00;4.80;;;22.30;60.10;;;;;;6176275;28;89037;-65
2022/03/13 20:11:42;;;;;;;6.50;5.07;;;22.40;60.10;;;;;;6178144;28;89096;-65
2022/03/13 20:14:45;;;;;;;11.55;5.95;;;22.40;60.10;;;;;;6177138;28;87958;-65
2022/03/13 20:17:47;;;;;;;13.07;6.70;;;22.40;60.40;;;;;;6177407;28;88360;-65
2022/03/13 20:20:51;;;;;;;10.15;5.95;;;22.40;60.60;;;;;;6177066;28;89010;-65
2022/03/13 20:23:53;;;;;;;12.75;5.97;;;22.40;60.60;;;;;;6177696;28;87848;-65
2022/03/13 20:26:56;;;;;;;11.52;6.72;;;22.40;60.80;;;;;;6175468;28;90094;-66
2022/03/13 20:29:58;;;;;;;10.90;6.32;;;22.40;60.60;;;;;;6181756;28;89714;-65
2022/03/13 20:33:01;;;;;;;10.95;6.78;;;22.40;60.60;;;;;;6182461;28;88213;-65
2022/03/13 20:36:05;;;;;;;10.18;6.78;;;22.40;60.60;;;;;;6181136;28;89448;-65
2022/03/13 20:39:07;;;;;;;10.73;7.60;;;22.50;60.60;;;;;;6182049;28;89089;-65
2022/03/13 20:42:10;;;;;;;10.85;7.25;;;22.50;60.50;;;;;;6180005;28;89999;-66
2022/03/13 20:45:11;;;;;;;12.18;8.52;;;22.50;60.50;;;;;;6183502;28;88603;-67
2022/03/13 20:48:14;;;;;;;9.90;7.03;;;22.50;71.10;;;;;;6171425;28;88379;-66
2022/03/13 20:51:17;;;;;;;9.73;7.70;;;22.60;68.20;;;;;;6183035;28;89037;-66
2022/03/13 20:54:21;;;;;;;9.88;7.75;;;22.70;65.40;;;;;;6171208;28;89062;-66
2022/03/13 20:57:42;;;;;;;12.00;8.20;;;22.70;64.20;;;;;;6174708;28;89921;-67
2022/03/13 21:00:44;;;;;;;11.13;8.13;;;22.80;64.40;;;;;;6176838;28;89049;-67
2022/03/13 21:03:45;;;;;;;12.07;8.52;;;22.80;64.20;;;;;;6180699;28;88977;-66
2022/03/13 21:06:49;;;;;;;11.27;8.38;;;22.70;62.80;;;;;;6162637;28;89072;-66
2022/03/13 21:09:51;;;;;;;10.68;8.60;;;22.80;61.20;;;;;;6181352;28;89196;-66
2022/03/13 21:12:58;;;;;;;11.93;8.48;;;22.70;60.80;;;;;;6178371;28;89406;-65
2022/03/13 21:16:00;;;;;;;11.32;8.93;;;22.70;60.50;;;;;;6182756;28;89125;-65
2022/03/13 21:19:03;;;;;;;10.00;8.60;;;22.70;60.60;;;;;;6182978;28;88287;-65
2022/03/13 21:22:07;;;;;;;10.07;8.98;;;22.70;60.20;;;;;;6181946;28;89623;-65
2022/03/13 21:25:11;;;;;;;11.20;9.13;;;22.70;60.30;;;;;;6169737;28;89090;-65
2022/03/13 21:28:14;;;;;;;10.93;9.68;;;22.70;60.30;;;;;;6180916;28;90008;-65
2022/03/13 21:31:16;;;;;;;12.50;9.75;;;22.60;60.30;;;;;;6182621;28;89366;-65
2022/03/13 21:34:19;;;;;;;11.05;9.45;;;22.60;60.30;;;;;;6180629;28;89115;-66
2022/03/13 21:37:23;;;;;;;12.60;10.50;;;22.60;60.50;;;;;;6181991;28;89004;-65
2022/03/13 21:40:25;;;;;;;11.57;10.02;;;22.50;60.40;;;;;;6181914;28;89145;-65
2022/03/13 21:43:27;;;;;;;11.93;10.60;;;22.50;60.50;;;;;;6179806;28;89386;-65
2022/03/13 21:46:29;;;;;;;12.80;11.05;;;22.50;60.60;;;;;;6182641;28;87879;-65
2022/03/13 21:49:31;;;;;;;12.00;10.70;;;22.40;60.60;;;;;;6181426;28;88443;-65
2022/03/13 21:52:34;;;;;;;13.32;11.40;;;22.40;60.50;;;;;;6179613;28;89049;-65
2022/03/13 21:55:36;;;;;;;12.98;11.55;;;22.40;60.50;;;;;;6158554;28;89039;-65
2022/03/13 21:58:39;;;;;;;13.52;12.13;;;22.40;60.50;;;;;;6172512;28;89972;-65
2022/03/13 22:01:42;;;;;;;13.55;11.82;;;22.30;61.40;;;;;;6175213;28;89118;-65
2022/03/13 22:04:44;;;;;;;14.23;12.68;;;22.30;60.60;;;;;;6180440;28;89078;-66
2022/03/13 22:07:47;;;;;;;14.43;12.20;;;22.20;60.60;;;;;;6180906;28;89079;-65